Aviation Digital Data Service (ADDS)

Output produced by METARs form (1943 UTC 28 March 2017)
found at http://www.aviationweather.gov/adds/metars/
 
KSBY 281854Z 22010KT 10SM SCT020 BKN090 22/16 A2984 RMK AO2 SLP105 T02170156
KSBY 281730Z 2818/2918 22008KT P6SM VCSH SCT080 BKN120 
     FM282000 24010KT 6SM -SHRA VCTS BKN030CB BKN060 
     FM290000 30008KT P6SM VCSH BKN060 
     FM290600 35010KT P6SM BKN008 
     FM291200 35010KT P6SM BKN015 
     FM291400 35010G15KT P6SM SCT025